createdAt,value
2023-01-02T00:03:04.040Z,19.5
2023-01-02T00:08:05.953Z,19.5
2023-01-02T00:13:05.938Z,19.5
2023-01-02T00:18:05.949Z,19.5
2023-01-02T00:23:06.208Z,19.5
2023-01-02T00:28:06.274Z,19.5
2023-01-02T00:33:06.466Z,19.5
2023-01-02T00:38:06.657Z,19.4
2023-01-02T00:43:06.949Z,19.4
2023-01-02T00:48:07.245Z,19.4
2023-01-02T00:53:07.193Z,19.5
2023-01-02T00:58:07.338Z,19.4
2023-01-02T01:03:07.493Z,19.3
2023-01-02T01:08:07.717Z,19.4
2023-01-02T01:13:10.847Z,19.3
2023-01-02T01:18:10.658Z,19.4
2023-01-02T01:23:10.953Z,19.3
2023-01-02T01:28:10.919Z,19.2
2023-01-02T01:33:11.272Z,19.3
2023-01-02T01:38:11.436Z,19.3
2023-01-02T01:43:11.477Z,19.3
2023-01-02T01:48:11.796Z,19.2
2023-01-02T01:53:11.784Z,19.3
2023-01-02T01:58:11.951Z,19.2
2023-01-02T02:03:12.023Z,19.2
2023-01-02T02:08:12.277Z,19.2
2023-01-02T02:13:12.577Z,19.2
2023-01-02T02:18:12.764Z,19.3
2023-01-02T02:23:15.810Z,19.2
2023-01-02T02:28:15.584Z,19.2
2023-01-02T02:33:15.567Z,19.1
2023-01-02T02:38:15.877Z,19.2
2023-01-02T02:43:16.061Z,19.2
2023-01-02T02:48:16.150Z,19
2023-01-02T02:53:16.304Z,19.2
2023-01-02T02:58:16.455Z,19.2
2023-01-02T03:03:16.901Z,19.1
2023-01-02T03:08:17.287Z,19.1
2023-01-02T03:13:17.347Z,19.2
2023-01-02T03:18:20.533Z,19
2023-01-02T03:23:20.464Z,19.1
2023-01-02T03:28:20.487Z,19
2023-01-02T03:33:20.941Z,19.1
2023-01-02T03:38:21.051Z,19
2023-01-02T03:43:21.536Z,19
2023-01-02T03:48:21.612Z,19
2023-01-02T03:53:21.632Z,19.1
2023-01-02T03:58:21.744Z,19
2023-01-02T04:03:21.712Z,19
2023-01-02T04:08:22.089Z,19
2023-01-02T04:13:22.394Z,19
2023-01-02T04:18:22.662Z,18.9
2023-01-02T04:23:22.548Z,19
2023-01-02T04:28:25.265Z,19
2023-01-02T04:33:24.795Z,18.9
2023-01-02T04:38:25.080Z,18.9
2023-01-02T04:43:25.209Z,18.7
2023-01-02T04:48:25.504Z,18.9
2023-01-02T04:53:25.434Z,18.9
2023-01-02T04:58:25.842Z,18.9
2023-01-02T05:03:25.845Z,18.8
2023-01-02T05:08:25.970Z,18.9
2023-01-02T05:13:25.940Z,18.8
2023-01-02T05:18:26.165Z,18.8
2023-01-02T05:23:26.281Z,18.8
2023-01-02T05:28:26.472Z,18.8
2023-01-02T05:33:26.626Z,18.7
2023-01-02T05:38:26.927Z,18.7
2023-01-02T05:43:27.069Z,18.7
2023-01-02T05:48:27.133Z,18.8
2023-01-02T05:53:27.437Z,18.8
2023-01-02T05:58:27.670Z,18.8
2023-01-02T06:03:27.940Z,18.7
2023-01-02T06:08:28.296Z,18.6
2023-01-02T06:13:28.514Z,18.7
2023-01-02T06:18:29.474Z,18.7
2023-01-02T06:23:29.645Z,18.7
2023-01-02T06:28:29.675Z,18.8
2023-01-02T06:33:29.975Z,18.8
2023-01-02T06:38:30.255Z,18.8
2023-01-02T06:43:30.518Z,18.8
2023-01-02T06:48:30.791Z,18.9
2023-01-02T06:53:30.969Z,18.8
2023-01-02T06:58:31.221Z,18.8
2023-01-02T07:03:31.310Z,18.7
2023-01-02T07:08:31.515Z,18.8
2023-01-02T07:13:31.705Z,18.8
2023-01-02T07:18:31.572Z,18.9
2023-01-02T07:23:31.927Z,18.8
2023-01-02T07:28:31.929Z,19.1
2023-01-02T07:33:32.289Z,19.3
2023-01-02T07:38:32.741Z,19.4
2023-01-02T07:43:33.116Z,19.5
2023-01-02T07:48:33.498Z,19.4
2023-01-02T07:53:33.622Z,19.6
2023-01-02T07:58:34.023Z,19.8
2023-01-02T08:03:34.173Z,19.6
2023-01-02T08:08:34.520Z,19.6
2023-01-02T08:13:35.006Z,19.7
2023-01-02T08:18:35.086Z,19.7
2023-01-02T08:23:35.116Z,19.7
2023-01-02T08:28:35.362Z,19.7
2023-01-02T08:33:35.661Z,19.7
2023-01-02T08:38:38.315Z,19.7
2023-01-02T08:43:37.899Z,19.7
2023-01-02T08:48:37.568Z,19.7
2023-01-02T08:53:38.121Z,19.7
2023-01-02T08:58:38.304Z,19.6
2023-01-02T09:03:38.798Z,19.6
2023-01-02T09:08:38.878Z,19.6
2023-01-02T09:13:39.117Z,19.6
2023-01-02T09:18:39.222Z,19.6
2023-01-02T09:23:39.469Z,19.5
2023-01-02T09:28:39.676Z,19.7
2023-01-02T09:33:39.969Z,19.8
2023-01-02T09:38:42.937Z,19.8
2023-01-02T09:43:43.795Z,19.8
2023-01-02T09:48:43.842Z,19.8
2023-01-02T09:53:46.907Z,19.8
2023-01-02T09:58:49.101Z,19.8
2023-01-02T10:03:48.628Z,19.8
2023-01-02T10:08:48.805Z,19.8
2023-01-02T10:14:17.867Z,19.8
2023-01-02T10:18:53.841Z,19.8
2023-01-02T10:23:53.600Z,19.9
2023-01-02T10:28:53.613Z,19.9
2023-01-02T10:33:53.744Z,19.8
2023-01-02T10:38:53.851Z,19.7
2023-01-02T10:43:56.863Z,19.8
2023-01-02T10:48:56.689Z,19.8
2023-01-02T10:53:56.480Z,19.8
2023-01-02T10:58:56.234Z,19.9
2023-01-02T11:03:56.216Z,20.3
2023-01-02T11:08:59.765Z,20.5
2023-01-02T11:14:02.497Z,20.8
2023-01-02T11:19:02.423Z,21
2023-01-02T11:24:02.462Z,21.1
2023-01-02T11:29:02.679Z,21.3
2023-01-02T11:34:03.045Z,21.4
2023-01-02T11:39:03.152Z,21.5
2023-01-02T11:44:06.021Z,21.7
2023-01-02T11:49:05.844Z,21.7
2023-01-02T11:54:05.829Z,21.8
2023-01-02T11:59:05.813Z,21.9
2023-01-02T12:04:05.613Z,21.9
2023-01-02T12:09:08.568Z,22
2023-01-02T12:14:08.266Z,22
2023-01-02T12:19:08.078Z,22.7
2023-01-02T12:24:08.036Z,22.9
2023-01-02T12:29:11.046Z,23
2023-01-02T12:34:10.600Z,23
2023-01-02T12:39:10.830Z,23
2023-01-02T12:44:10.897Z,23.1
2023-01-02T12:49:13.710Z,23.1
2023-01-02T12:54:19.371Z,23.3
2023-01-02T12:59:13.549Z,23.3
2023-01-02T13:04:13.523Z,23.3
2023-01-02T13:09:18.316Z,23.4
2023-01-02T13:14:13.599Z,23.4
2023-01-02T13:19:14.000Z,23.3
2023-01-02T13:24:14.086Z,23.4
2023-01-02T13:29:14.184Z,23.4
2023-01-02T13:34:22.187Z,23.4
2023-01-02T13:39:16.779Z,23.4
2023-01-02T13:44:16.954Z,23.5
2023-01-02T13:49:17.379Z,23.6
2023-01-02T13:54:17.557Z,23.6
2023-01-02T13:59:41.329Z,23.5
2023-01-02T14:04:18.022Z,23.4
2023-01-02T14:09:18.244Z,23.7
2023-01-02T14:14:18.437Z,23.6
2023-01-02T14:19:18.835Z,23.6
2023-01-02T14:24:24.380Z,23.5
2023-01-02T14:29:24.655Z,23.5
2023-01-02T14:34:27.153Z,23.6
2023-01-02T14:39:26.801Z,23.6
2023-01-02T14:44:27.003Z,23.6
2023-01-02T14:49:27.358Z,23.4
2023-01-02T14:54:27.274Z,23.5
2023-01-02T14:59:27.631Z,23.5
2023-01-02T15:04:27.872Z,23.3
2023-01-02T15:09:28.045Z,23.5
2023-01-02T15:14:28.128Z,23.4
2023-01-02T15:19:28.464Z,23.5
2023-01-02T15:24:28.682Z,23.4
2023-01-02T15:29:28.956Z,23.4
2023-01-02T15:34:29.355Z,23.4
2023-01-02T15:39:29.556Z,23.3
2023-01-02T15:44:29.682Z,23.3
2023-01-02T15:49:29.777Z,23.4
2023-01-02T15:54:29.594Z,23.4
2023-01-02T15:59:29.929Z,23.4
2023-01-02T16:04:30.162Z,23.3
2023-01-02T16:09:33.169Z,23.3
2023-01-02T16:14:32.916Z,23.1
2023-01-02T16:19:33.264Z,23
2023-01-02T16:24:33.397Z,23.2
2023-01-02T16:29:33.577Z,23.2
2023-01-02T16:34:34.039Z,23.2
2023-01-02T16:39:34.349Z,23.2
2023-01-02T16:44:34.628Z,23.2
2023-01-02T16:49:34.827Z,23.2
2023-01-02T16:54:37.791Z,23.2
2023-01-02T16:59:37.264Z,23.1
2023-01-02T17:04:37.584Z,23.1
2023-01-02T17:09:37.751Z,23.1
2023-01-02T17:14:37.823Z,23.1
2023-01-02T17:19:38.099Z,23.3
2023-01-02T17:24:38.424Z,23.2
2023-01-02T17:29:38.980Z,23.4
2023-01-02T17:34:41.799Z,23.3
2023-01-02T17:39:41.451Z,23.3
2023-01-02T17:44:41.673Z,23.3
2023-01-02T17:49:41.641Z,23.3
2023-01-02T17:54:42.021Z,23.1
2023-01-02T17:59:41.968Z,23.1
2023-01-02T18:04:42.312Z,22.7
2023-01-02T18:09:42.269Z,22.2
2023-01-02T18:14:41.858Z,21.8
2023-01-02T18:19:44.273Z,21.4
2023-01-02T18:24:47.642Z,21.2
2023-01-02T18:29:46.979Z,20.9
2023-01-02T18:34:48.792Z,20.7
2023-01-02T18:39:47.407Z,20.5
2023-01-02T18:44:47.750Z,20.5
2023-01-02T18:49:48.141Z,20.4
2023-01-02T18:54:48.417Z,20.3
2023-01-02T18:59:48.580Z,20.3
2023-01-02T19:04:48.304Z,20.2
2023-01-02T19:09:51.616Z,20.2
2023-01-02T19:14:53.841Z,20.2
2023-01-02T19:19:56.462Z,20.1
2023-01-02T19:25:03.713Z,20.1
2023-01-02T19:29:58.695Z,20.1
2023-01-02T19:35:01.710Z,20
2023-01-02T19:40:01.267Z,19.9
2023-01-02T19:45:04.507Z,19.9
2023-01-02T19:50:04.195Z,19.9
2023-01-02T19:55:07.061Z,19.9
2023-01-02T20:00:06.860Z,19.9
2023-01-02T20:05:07.270Z,19.9
2023-01-02T20:10:07.271Z,19.9
2023-01-02T20:15:07.436Z,19.9
2023-01-02T20:20:07.412Z,19.8
2023-01-02T20:25:07.436Z,19.8
2023-01-02T20:30:10.442Z,19.8
2023-01-02T20:35:12.785Z,19.8
2023-01-02T20:40:12.634Z,19.8
2023-01-02T20:45:12.819Z,19.6
2023-01-02T20:50:13.032Z,19.7
2023-01-02T20:55:16.112Z,19.6
2023-01-02T21:00:16.753Z,19.7
2023-01-02T21:05:16.460Z,19.6
2023-01-02T21:10:16.780Z,19.6
2023-01-02T21:15:19.843Z,19.6
2023-01-02T21:20:19.590Z,19.7
2023-01-02T21:25:19.495Z,19.6
2023-01-02T21:30:19.649Z,19.6
2023-01-02T21:35:22.423Z,19.6
2023-01-02T21:40:24.844Z,19.6
2023-01-02T21:45:24.523Z,19.6
2023-01-02T21:50:24.810Z,19.5
2023-01-02T21:55:26.754Z,19.5
2023-01-02T22:00:26.501Z,19.5
2023-01-02T22:05:26.740Z,19.5
2023-01-02T22:10:26.861Z,19.5
2023-01-02T22:15:27.005Z,19.5
2023-01-02T22:20:27.179Z,19.5
2023-01-02T22:25:27.505Z,19.4
2023-01-02T22:30:33.814Z,19.5
2023-01-02T22:35:26.987Z,19.4
2023-01-02T22:40:28.097Z,19.4
2023-01-02T22:45:28.035Z,19.4
2023-01-02T22:50:29.198Z,19.4
2023-01-02T22:55:28.919Z,19.3
2023-01-02T23:00:29.049Z,19.4
2023-01-02T23:05:32.179Z,19.4
2023-01-02T23:10:32.140Z,19.3
2023-01-02T23:15:32.258Z,19.4
2023-01-02T23:20:32.455Z,19.4
2023-01-02T23:25:32.722Z,19.2
2023-01-02T23:30:32.978Z,19.2
2023-01-02T23:35:33.362Z,19.3
2023-01-02T23:40:34.380Z,19.3
2023-01-02T23:45:33.918Z,19.2
2023-01-02T23:50:34.212Z,19.2
2023-01-02T23:55:34.585Z,19.2
